Flight Track Log - Related Links

Times and Time Zones

All times are in EST time to prevent confusion due to time zone crossing. See the WAV324 flight status page for this flight to view local times or setup timezone preferences in your user account.


Time Position Orientation Groundspeed Altitude Reporting Facility
EST Latitude Longitude Course Direction KTS MPH feet Rate Location/Type
Sun 07:06:00 PM 65.0719 -147.5005 16° North  Level Estimated
Sun 07:07:00 PM 65.1141 -147.4879 North  Level FlightAware Approximate
Sun 07:08:00 PM 65.1563 -147.4752 North  Level FlightAware Approximate
Sun 07:09:00 PM 65.1985 -147.4625 North  Level FlightAware Approximate
Sun 07:10:00 PM 65.2407 -147.4498 North  Level FlightAware Approximate
Sun 07:11:00 PM 65.2829 -147.4370 North  Level FlightAware Approximate
Sun 07:12:00 PM 65.3251 -147.4242 North  Level FlightAware Approximate
Sun 07:13:00 PM 65.3673 -147.4114 North  Level FlightAware Approximate
Sun 07:14:00 PM 65.4095 -147.3985 North  Level FlightAware Approximate
Sun 07:15:00 PM 65.4517 -147.3855 North  Level FlightAware Approximate
Sun 07:16:00 PM 65.4939 -147.3726 North  Level FlightAware Approximate
Sun 07:17:00 PM 65.5361 -147.3596 North  Level FlightAware Approximate
Sun 07:18:00 PM 65.5783 -147.3465 North  Level FlightAware Approximate
Sun 07:19:00 PM 65.6111 -147.2808 46° Northeast  Level Estimated
Sun 07:20:00 PM 65.6459 -147.2218 35° Northeast  Level FlightAware Approximate
Sun 07:21:00 PM 65.6808 -147.1626 35° Northeast  Level FlightAware Approximate
Sun 07:22:00 PM 65.7156 -147.1032 35° Northeast  Level FlightAware Approximate
Sun 07:23:00 PM 65.7504 -147.0437 35° Northeast  Level FlightAware Approximate
Sun 07:24:00 PM 65.7852 -146.9840 35° Northeast  Level FlightAware Approximate
Sun 07:25:00 PM 65.8199 -146.9241 35° Northeast  Level FlightAware Approximate
Sun 07:26:00 PM 65.8547 -146.8642 35° Northeast  Level FlightAware Approximate
Sun 07:27:00 PM 65.8894 -146.8040 35° Northeast  Level FlightAware Approximate
Sun 07:28:00 PM 65.9241 -146.7437 35° Northeast  Level FlightAware Approximate
Sun 07:29:00 PM 65.9587 -146.6832 35° Northeast  Level FlightAware Approximate
Sun 07:30:00 PM 65.9934 -146.6225 35° Northeast  Level FlightAware Approximate
Sun 07:31:00 PM 66.0280 -146.5617 36° Northeast  Level FlightAware Approximate
Sun 07:32:00 PM 66.0626 -146.5007 36° Northeast  Level FlightAware Approximate
Sun 07:33:00 PM 66.0931 -146.4277 55° Northeast  Level Estimated
Sun 07:34:00 PM 66.1236 -146.3545 48° Northeast  Level Estimated
Sun 07:35:00 PM 66.1555 -146.2848 41° Northeast  Level FlightAware Approximate
Sun 07:36:00 PM 66.1873 -146.2150 42° Northeast  Level FlightAware Approximate
Sun 07:37:00 PM 66.2175 -146.1407 48° Northeast  Level Estimated
Sun 07:38:00 PM 66.2477 -146.0663 45° Northeast  Level FlightAware Approximate
Sun 07:39:00 PM 66.2779 -145.9918 45° Northeast  Level FlightAware Approximate
Sun 07:40:00 PM 66.3080 -145.9171 45° Northeast  Level FlightAware Approximate
Sun 07:41:00 PM 66.3381 -145.8423 45° Northeast  Level FlightAware Approximate
Sun 07:42:00 PM 66.3681 -145.7672 45° Northeast  Level FlightAware Approximate
Sun 07:43:00 PM 66.3981 -145.6918 54° Northeast  Level Estimated
Sun 07:44:00 PM 66.4270 -145.6138 47° Northeast  Level FlightAware Approximate
Sun 07:45:00 PM 66.4570 -145.5384 54° Northeast  Level Estimated
Sun 07:46:00 PM 66.4870 -145.4629 54° Northeast  Level Estimated
Sun 07:47:00 PM 66.5170 -145.3871 54° Northeast  Level Estimated
Sun 07:48:00 PM 66.5469 -145.3112 54° Northeast  Level Estimated
Sun 07:49:00 PM 66.5667 -145.2333 54° Northeast  Level FlightAware Approximate
Sun 07:50:00 PM 66.5724 -145.2463 54° Northeast  Level Estimated
Sun 07:51:00 PM 66.5724 -145.2463 54° Northeast  Level Estimated
Sun 07:52:00 PM 66.5724 -145.2463 54° Northeast  Level Estimated
Sun 07:53:00 PM 66.5724 -145.2463 54° Northeast  Level Estimated
Sun 07:54:00 PM 66.5724 -145.2463 54° Northeast  Level Estimated
Sun 07:55:00 PM 66.5724 -145.2463 54° Northeast  Level Estimated
Sun 07:56:00 PM 66.5724 -145.2463 54° Northeast  Level Estimated
Sun 07:57:00 PM 66.5724 -145.2463 54° Northeast  Level Estimated
Sun 07:58:00 PM 66.5724 -145.2463 54° Northeast  Level Estimated
Sun 07:59:00 PM 66.5724 -145.2463 54° Northeast  Level Estimated
Sun 08:00:00 PM 66.5724 -145.2463 54° Northeast  Level Estimated
Sun 08:01:00 PM 66.5724 -145.2463 54° Northeast  Level Estimated
Sun 08:02:00 PM 66.5724 -145.2463 54° Northeast  Level Estimated
Sun 08:03:00 PM 66.5724 -145.2463 54° Northeast  Level Estimated
Sun 08:04:00 PM 66.5724 -145.2463 54° Northeast  Level Estimated
Sun 08:05:00 PM 66.5724 -145.2463 54° Northeast  Level Estimated
Sun 08:06:00 PM 66.5724 -145.2463 54° Northeast  Level Estimated

Login

Don't have an account? Register now (free) for customized features, flight alerts, and more!